sensor_id;sensor_type;location;lat;lon;timestamp;pressure;altitude;pressure_sealevel;temperature;humidity
68077;BME280;54866;53.458;14.540;2023-03-13T00:01:39;99604.41;;;1.03;100.00
68077;BME280;54866;53.458;14.540;2023-03-13T00:04:10;99607.39;;;1.05;100.00
68077;BME280;54866;53.458;14.540;2023-03-13T00:06:40;99602.61;;;1.07;100.00
68077;BME280;54866;53.458;14.540;2023-03-13T00:09:11;99603.60;;;1.11;100.00
68077;BME280;54866;53.458;14.540;2023-03-13T00:11:42;99596.17;;;1.13;100.00
68077;BME280;54866;53.458;14.540;2023-03-13T00:14:11;99599.02;;;1.15;100.00
68077;BME280;54866;53.458;14.540;2023-03-13T00:16:41;99592.09;;;1.17;100.00
68077;BME280;54866;53.458;14.540;2023-03-13T00:19:11;99597.98;;;1.21;100.00
68077;BME280;54866;53.458;14.540;2023-03-13T00:21:40;99603.61;;;1.23;100.00
68077;BME280;54866;53.458;14.540;2023-03-13T00:24:11;99600.02;;;1.28;100.00
68077;BME280;54866;53.458;14.540;2023-03-13T00:26:41;99600.77;;;1.33;100.00
68077;BME280;54866;53.458;14.540;2023-03-13T00:29:10;99600.45;;;1.38;100.00
68077;BME280;54866;53.458;14.540;2023-03-13T00:31:40;99594.53;;;1.45;100.00
68077;BME280;54866;53.458;14.540;2023-03-13T00:34:10;99593.80;;;1.51;100.00
68077;BME280;54866;53.458;14.540;2023-03-13T00:36:40;99595.70;;;1.58;100.00
68077;BME280;54866;53.458;14.540;2023-03-13T00:39:10;99594.81;;;1.64;100.00
68077;BME280;54866;53.458;14.540;2023-03-13T00:41:39;99584.06;;;1.69;100.00
68077;BME280;54866;53.458;14.540;2023-03-13T00:44:09;99587.58;;;1.74;100.00
68077;BME280;54866;53.458;14.540;2023-03-13T00:46:39;99593.04;;;1.81;100.00
68077;BME280;54866;53.458;14.540;2023-03-13T00:49:08;99588.29;;;1.88;100.00
68077;BME280;54866;53.458;14.540;2023-03-13T00:51:38;99582.17;;;1.95;100.00
68077;BME280;54866;53.458;14.540;2023-03-13T00:54:07;99580.36;;;2.01;100.00
68077;BME280;54866;53.458;14.540;2023-03-13T00:56:37;99572.77;;;2.06;100.00
68077;BME280;54866;53.458;14.540;2023-03-13T00:59:06;99571.78;;;2.11;100.00
68077;BME280;54866;53.458;14.540;2023-03-13T01:01:37;99569.73;;;2.17;100.00
68077;BME280;54866;53.458;14.540;2023-03-13T01:04:08;99569.61;;;2.21;100.00
68077;BME280;54866;53.458;14.540;2023-03-13T01:06:39;99570.88;;;2.26;100.00
68077;BME280;54866;53.458;14.540;2023-03-13T01:09:12;99576.36;;;2.33;100.00
68077;BME280;54866;53.458;14.540;2023-03-13T01:11:43;99579.00;;;2.38;100.00
68077;BME280;54866;53.458;14.540;2023-03-13T01:14:15;99575.73;;;2.43;100.00
68077;BME280;54866;53.458;14.540;2023-03-13T01:16:46;99574.36;;;2.48;100.00
68077;BME280;54866;53.458;14.540;2023-03-13T01:19:16;99577.15;;;2.54;100.00
68077;BME280;54866;53.458;14.540;2023-03-13T01:21:46;99568.46;;;2.62;100.00
68077;BME280;54866;53.458;14.540;2023-03-13T01:24:15;99562.14;;;2.68;100.00
68077;BME280;54866;53.458;14.540;2023-03-13T01:26:47;99560.39;;;2.74;100.00
68077;BME280;54866;53.458;14.540;2023-03-13T01:29:16;99563.39;;;2.79;100.00
68077;BME280;54866;53.458;14.540;2023-03-13T01:31:46;99560.71;;;2.82;100.00
68077;BME280;54866;53.458;14.540;2023-03-13T01:34:16;99552.05;;;2.87;100.00
68077;BME280;54866;53.458;14.540;2023-03-13T01:36:45;99548.63;;;2.91;100.00
68077;BME280;54866;53.458;14.540;2023-03-13T01:39:17;99545.10;;;2.95;100.00
68077;BME280;54866;53.458;14.540;2023-03-13T01:41:47;99543.81;;;2.99;100.00
68077;BME280;54866;53.458;14.540;2023-03-13T01:44:23;99534.23;;;3.01;100.00
68077;BME280;54866;53.458;14.540;2023-03-13T01:46:53;99530.73;;;3.07;100.00
68077;BME280;54866;53.458;14.540;2023-03-13T01:49:24;99525.28;;;3.10;100.00
68077;BME280;54866;53.458;14.540;2023-03-13T01:51:59;99517.79;;;3.13;100.00
68077;BME280;54866;53.458;14.540;2023-03-13T01:54:33;99512.33;;;3.14;100.00
68077;BME280;54866;53.458;14.540;2023-03-13T01:57:07;99510.81;;;3.18;100.00
68077;BME280;54866;53.458;14.540;2023-03-13T01:59:43;99507.81;;;3.19;100.00
68077;BME280;54866;53.458;14.540;2023-03-13T02:02:15;99497.55;;;3.17;100.00
68077;BME280;54866;53.458;14.540;2023-03-13T02:04:48;99494.27;;;3.16;100.00
68077;BME280;54866;53.458;14.540;2023-03-13T02:07:24;99493.33;;;3.15;100.00
68077;BME280;54866;53.458;14.540;2023-03-13T02:09:57;99489.25;;;3.14;100.00
68077;BME280;54866;53.458;14.540;2023-03-13T02:12:31;99484.70;;;3.11;100.00
68077;BME280;54866;53.458;14.540;2023-03-13T02:15:04;99481.99;;;3.13;100.00
68077;BME280;54866;53.458;14.540;2023-03-13T02:17:35;99482.59;;;3.14;100.00
68077;BME280;54866;53.458;14.540;2023-03-13T02:20:09;99484.48;;;3.14;100.00
68077;BME280;54866;53.458;14.540;2023-03-13T02:22:43;99484.63;;;3.15;100.00
68077;BME280;54866;53.458;14.540;2023-03-13T02:25:27;99486.21;;;3.17;100.00
68077;BME280;54866;53.458;14.540;2023-03-13T02:27:59;99482.73;;;3.17;100.00
68077;BME280;54866;53.458;14.540;2023-03-13T02:30:30;99487.45;;;3.19;100.00
68077;BME280;54866;53.458;14.540;2023-03-13T02:33:00;99484.73;;;3.21;100.00
68077;BME280;54866;53.458;14.540;2023-03-13T02:35:32;99485.61;;;3.23;100.00
68077;BME280;54866;53.458;14.540;2023-03-13T02:38:05;99482.50;;;3.25;100.00
68077;BME280;54866;53.458;14.540;2023-03-13T02:40:39;99480.90;;;3.28;100.00
68077;BME280;54866;53.458;14.540;2023-03-13T02:43:13;99478.70;;;3.30;100.00
68077;BME280;54866;53.458;14.540;2023-03-13T02:46:01;99480.48;;;3.32;100.00
68077;BME280;54866;53.458;14.540;2023-03-13T02:48:34;99483.62;;;3.35;100.00
68077;BME280;54866;53.458;14.540;2023-03-13T02:51:07;99483.08;;;3.38;100.00
68077;BME280;54866;53.458;14.540;2023-03-13T02:53:40;99481.52;;;3.40;100.00
68077;BME280;54866;53.458;14.540;2023-03-13T02:56:12;99479.02;;;3.41;100.00
68077;BME280;54866;53.458;14.540;2023-03-13T02:58:44;99475.73;;;3.43;100.00
68077;BME280;54866;53.458;14.540;2023-03-13T03:01:13;99472.84;;;3.42;100.00
68077;BME280;54866;53.458;14.540;2023-03-13T03:03:43;99474.83;;;3.46;100.00
68077;BME280;54866;53.458;14.540;2023-03-13T03:06:12;99473.84;;;3.46;100.00
68077;BME280;54866;53.458;14.540;2023-03-13T03:08:42;99474.38;;;3.48;100.00
68077;BME280;54866;53.458;14.540;2023-03-13T03:11:13;99466.66;;;3.49;100.00
68077;BME280;54866;53.458;14.540;2023-03-13T03:13:42;99457.77;;;3.49;100.00
68077;BME280;54866;53.458;14.540;2023-03-13T03:16:13;99457.02;;;3.50;100.00
68077;BME280;54866;53.458;14.540;2023-03-13T03:18:45;99452.43;;;3.51;100.00
68077;BME280;54866;53.458;14.540;2023-03-13T03:21:15;99449.64;;;3.51;100.00
68077;BME280;54866;53.458;14.540;2023-03-13T03:23:45;99451.22;;;3.50;100.00
68077;BME280;54866;53.458;14.540;2023-03-13T03:26:15;99451.37;;;3.51;100.00
68077;BME280;54866;53.458;14.540;2023-03-13T03:28:44;99450.30;;;3.51;100.00
68077;BME280;54866;53.458;14.540;2023-03-13T03:31:15;99446.30;;;3.51;100.00
68077;BME280;54866;53.458;14.540;2023-03-13T03:33:44;99438.95;;;3.52;100.00
68077;BME280;54866;53.458;14.540;2023-03-13T03:36:16;99440.94;;;3.53;100.00
68077;BME280;54866;53.458;14.540;2023-03-13T03:38:46;99433.52;;;3.52;100.00
68077;BME280;54866;53.458;14.540;2023-03-13T03:41:16;99430.94;;;3.54;100.00
68077;BME280;54866;53.458;14.540;2023-03-13T03:43:47;99422.04;;;3.54;100.00
68077;BME280;54866;53.458;14.540;2023-03-13T03:46:17;99423.96;;;3.54;100.00
68077;BME280;54866;53.458;14.540;2023-03-13T03:48:47;99420.98;;;3.54;100.00
68077;BME280;54866;53.458;14.540;2023-03-13T03:51:16;99412.41;;;3.55;100.00
68077;BME280;54866;53.458;14.540;2023-03-13T03:53:46;99416.18;;;3.55;100.00
68077;BME280;54866;53.458;14.540;2023-03-13T03:56:16;99412.27;;;3.57;100.00
68077;BME280;54866;53.458;14.540;2023-03-13T03:58:45;99403.11;;;3.58;100.00
68077;BME280;54866;53.458;14.540;2023-03-13T04:01:15;99394.22;;;3.61;100.00
68077;BME280;54866;53.458;14.540;2023-03-13T04:03:44;99389.13;;;3.64;100.00
68077;BME280;54866;53.458;14.540;2023-03-13T04:06:15;99387.45;;;3.66;100.00
68077;BME280;54866;53.458;14.540;2023-03-13T04:08:45;99384.44;;;3.69;100.00
68077;BME280;54866;53.458;14.540;2023-03-13T04:11:14;99381.02;;;3.71;100.00
68077;BME280;54866;53.458;14.540;2023-03-13T04:13:44;99381.80;;;3.74;100.00
68077;BME280;54866;53.458;14.540;2023-03-13T04:16:13;99370.85;;;3.76;100.00
68077;BME280;54866;53.458;14.540;2023-03-13T04:18:43;99372.27;;;3.80;100.00
68077;BME280;54866;53.458;14.540;2023-03-13T04:21:12;99368.85;;;3.85;100.00
68077;BME280;54866;53.458;14.540;2023-03-13T04:23:42;99368.52;;;3.87;100.00
68077;BME280;54866;53.458;14.540;2023-03-13T04:26:12;99366.01;;;3.88;100.00
68077;BME280;54866;53.458;14.540;2023-03-13T04:28:41;99353.61;;;3.90;100.00
68077;BME280;54866;53.458;14.540;2023-03-13T04:31:11;99348.92;;;3.92;100.00
68077;BME280;54866;53.458;14.540;2023-03-13T04:33:40;99347.33;;;3.93;100.00
68077;BME280;54866;53.458;14.540;2023-03-13T04:36:10;99342.05;;;3.93;100.00
68077;BME280;54866;53.458;14.540;2023-03-13T04:38:40;99342.91;;;3.96;100.00
68077;BME280;54866;53.458;14.540;2023-03-13T04:41:10;99337.33;;;3.99;100.00
68077;BME280;54866;53.458;14.540;2023-03-13T04:43:39;99336.88;;;4.01;100.00
68077;BME280;54866;53.458;14.540;2023-03-13T04:46:09;99332.37;;;4.02;100.00
68077;BME280;54866;53.458;14.540;2023-03-13T04:48:38;99329.55;;;4.05;100.00
68077;BME280;54866;53.458;14.540;2023-03-13T04:51:08;99328.04;;;4.09;100.00
68077;BME280;54866;53.458;14.540;2023-03-13T04:53:37;99317.42;;;4.11;100.00
68077;BME280;54866;53.458;14.540;2023-03-13T04:56:07;99319.42;;;4.15;100.00
68077;BME280;54866;53.458;14.540;2023-03-13T04:58:37;99313.83;;;4.17;100.00
68077;BME280;54866;53.458;14.540;2023-03-13T05:01:07;99309.39;;;4.21;100.00
68077;BME280;54866;53.458;14.540;2023-03-13T05:03:36;99307.00;;;4.23;100.00
68077;BME280;54866;53.458;14.540;2023-03-13T05:06:06;99301.86;;;4.26;100.00
68077;BME280;54866;53.458;14.540;2023-03-13T05:08:36;99297.70;;;4.28;100.00
68077;BME280;54866;53.458;14.540;2023-03-13T05:11:06;99292.79;;;4.31;100.00
68077;BME280;54866;53.458;14.540;2023-03-13T05:13:36;99288.04;;;4.31;100.00
68077;BME280;54866;53.458;14.540;2023-03-13T05:16:07;99280.58;;;4.33;100.00
68077;BME280;54866;53.458;14.540;2023-03-13T05:18:37;99278.70;;;4.35;100.00
68077;BME280;54866;53.458;14.540;2023-03-13T05:21:08;99270.58;;;4.36;100.00
68077;BME280;54866;53.458;14.540;2023-03-13T05:23:37;99270.58;;;4.39;100.00
68077;BME280;54866;53.458;14.540;2023-03-13T05:26:07;99273.95;;;4.40;100.00
68077;BME280;54866;53.458;14.540;2023-03-13T05:28:36;99271.63;;;4.41;100.00
68077;BME280;54866;53.458;14.540;2023-03-13T05:31:06;99263.63;;;4.43;100.00
68077;BME280;54866;53.458;14.540;2023-03-13T05:33:35;99257.55;;;4.45;100.00
68077;BME280;54866;53.458;14.540;2023-03-13T05:36:08;99251.31;;;4.44;100.00
68077;BME280;54866;53.458;14.540;2023-03-13T05:38:37;99251.10;;;4.45;100.00
68077;BME280;54866;53.458;14.540;2023-03-13T05:41:07;99242.92;;;4.44;100.00
68077;BME280;54866;53.458;14.540;2023-03-13T05:43:37;99243.06;;;4.45;100.00
68077;BME280;54866;53.458;14.540;2023-03-13T05:46:06;99245.73;;;4.46;100.00
68077;BME280;54866;53.458;14.540;2023-03-13T05:48:36;99237.21;;;4.48;100.00
68077;BME280;54866;53.458;14.540;2023-03-13T05:51:06;99239.15;;;4.50;100.00
68077;BME280;54866;53.458;14.540;2023-03-13T05:53:35;99226.36;;;4.51;100.00
68077;BME280;54866;53.458;14.540;2023-03-13T05:56:06;99222.76;;;4.53;100.00
68077;BME280;54866;53.458;14.540;2023-03-13T05:58:35;99215.05;;;4.56;100.00
68077;BME280;54866;53.458;14.540;2023-03-13T06:01:10;99205.96;;;4.58;100.00
68077;BME280;54866;53.458;14.540;2023-03-13T06:03:40;99204.58;;;4.60;100.00
68077;BME280;54866;53.458;14.540;2023-03-13T06:06:09;99192.98;;;4.63;100.00
68077;BME280;54866;53.458;14.540;2023-03-13T06:08:39;99181.11;;;4.68;100.00
68077;BME280;54866;53.458;14.540;2023-03-13T06:11:09;99179.59;;;4.72;100.00
68077;BME280;54866;53.458;14.540;2023-03-13T06:13:38;99168.94;;;4.76;100.00
68077;BME280;54866;53.458;14.540;2023-03-13T06:16:09;99158.73;;;4.80;100.00
68077;BME280;54866;53.458;14.540;2023-03-13T06:18:39;99162.14;;;4.83;100.00
68077;BME280;54866;53.458;14.540;2023-03-13T06:21:08;99161.65;;;4.87;100.00
68077;BME280;54866;53.458;14.540;2023-03-13T06:23:38;99152.60;;;4.91;100.00
68077;BME280;54866;53.458;14.540;2023-03-13T06:26:09;99145.39;;;4.94;100.00
68077;BME280;54866;53.458;14.540;2023-03-13T06:28:39;99141.55;;;4.96;100.00
68077;BME280;54866;53.458;14.540;2023-03-13T06:31:09;99154.33;;;5.00;100.00
68077;BME280;54866;53.458;14.540;2023-03-13T06:33:38;99135.10;;;5.02;100.00
68077;BME280;54866;53.458;14.540;2023-03-13T06:36:09;99137.54;;;5.05;100.00
68077;BME280;54866;53.458;14.540;2023-03-13T06:38:38;99126.09;;;5.06;100.00
68077;BME280;54866;53.458;14.540;2023-03-13T06:41:08;99126.01;;;5.07;100.00
68077;BME280;54866;53.458;14.540;2023-03-13T06:43:38;99124.59;;;5.07;100.00
68077;BME280;54866;53.458;14.540;2023-03-13T06:46:09;99127.92;;;5.09;100.00
68077;BME280;54866;53.458;14.540;2023-03-13T06:48:44;99119.02;;;5.11;100.00
68077;BME280;54866;53.458;14.540;2023-03-13T06:51:16;99116.34;;;5.12;100.00
68077;BME280;54866;53.458;14.540;2023-03-13T06:53:46;99116.28;;;5.15;100.00
68077;BME280;54866;53.458;14.540;2023-03-13T06:56:16;99112.55;;;5.18;100.00
68077;BME280;54866;53.458;14.540;2023-03-13T06:58:49;99106.65;;;5.20;100.00
68077;BME280;54866;53.458;14.540;2023-03-13T07:01:19;99100.23;;;5.22;100.00
68077;BME280;54866;53.458;14.540;2023-03-13T07:03:49;99095.54;;;5.23;100.00
68077;BME280;54866;53.458;14.540;2023-03-13T07:06:19;99089.98;;;5.25;100.00
68077;BME280;54866;53.458;14.540;2023-03-13T07:08:48;99097.18;;;5.27;100.00
68077;BME280;54866;53.458;14.540;2023-03-13T07:11:18;99088.05;;;5.29;100.00
68077;BME280;54866;53.458;14.540;2023-03-13T07:13:47;99082.39;;;5.32;100.00
68077;BME280;54866;53.458;14.540;2023-03-13T07:16:17;99081.41;;;5.36;100.00
68077;BME280;54866;53.458;14.540;2023-03-13T07:18:47;99081.92;;;5.38;100.00
68077;BME280;54866;53.458;14.540;2023-03-13T07:21:16;99082.44;;;5.40;100.00
68077;BME280;54866;53.458;14.540;2023-03-13T07:23:46;99076.77;;;5.41;100.00
68077;BME280;54866;53.458;14.540;2023-03-13T07:26:16;99068.08;;;5.45;100.00
68077;BME280;54866;53.458;14.540;2023-03-13T07:28:46;99055.70;;;5.49;100.00
68077;BME280;54866;53.458;14.540;2023-03-13T07:31:18;99048.30;;;5.53;100.00
68077;BME280;54866;53.458;14.540;2023-03-13T07:33:48;99052.27;;;5.56;100.00
68077;BME280;54866;53.458;14.540;2023-03-13T07:36:19;99039.12;;;5.59;100.00
68077;BME280;54866;53.458;14.540;2023-03-13T07:38:49;99034.13;;;5.64;100.00
68077;BME280;54866;53.458;14.540;2023-03-13T07:41:19;99033.05;;;5.68;100.00
68077;BME280;54866;53.458;14.540;2023-03-13T07:43:49;99025.63;;;5.71;100.00
68077;BME280;54866;53.458;14.540;2023-03-13T07:46:19;99022.30;;;5.76;100.00
68077;BME280;54866;53.458;14.540;2023-03-13T07:48:49;99006.09;;;5.78;100.00
68077;BME280;54866;53.458;14.540;2023-03-13T07:51:21;98996.99;;;5.80;100.00
68077;BME280;54866;53.458;14.540;2023-03-13T07:53:51;98996.29;;;5.82;100.00
68077;BME280;54866;53.458;14.540;2023-03-13T07:56:22;98984.37;;;5.84;100.00
68077;BME280;54866;53.458;14.540;2023-03-13T07:58:52;98985.64;;;5.86;100.00
68077;BME280;54866;53.458;14.540;2023-03-13T08:01:23;98988.09;;;5.90;100.00
68077;BME280;54866;53.458;14.540;2023-03-13T08:03:53;98991.77;;;5.94;100.00
68077;BME280;54866;53.458;14.540;2023-03-13T08:06:24;98996.99;;;5.98;100.00
68077;BME280;54866;53.458;14.540;2023-03-13T08:08:57;98990.16;;;6.02;100.00
68077;BME280;54866;53.458;14.540;2023-03-13T08:11:27;98991.20;;;6.04;100.00
68077;BME280;54866;53.458;14.540;2023-03-13T08:13:58;98979.40;;;6.06;100.00
68077;BME280;54866;53.458;14.540;2023-03-13T08:16:29;98980.11;;;6.08;100.00
68077;BME280;54866;53.458;14.540;2023-03-13T08:19:00;98976.70;;;6.11;100.00
68077;BME280;54866;53.458;14.540;2023-03-13T08:21:33;98958.77;;;6.16;100.00
68077;BME280;54866;53.458;14.540;2023-03-13T08:24:05;98962.02;;;6.18;100.00
68077;BME280;54866;53.458;14.540;2023-03-13T08:26:37;98955.81;;;6.21;100.00
68077;BME280;54866;53.458;14.540;2023-03-13T08:29:09;98945.90;;;6.23;100.00
68077;BME280;54866;53.458;14.540;2023-03-13T08:31:43;98952.80;;;6.26;100.00
68077;BME280;54866;53.458;14.540;2023-03-13T08:34:15;98945.83;;;6.30;100.00
68077;BME280;54866;53.458;14.540;2023-03-13T08:36:45;98933.25;;;6.31;100.00
68077;BME280;54866;53.458;14.540;2023-03-13T08:39:16;98930.58;;;6.32;100.00
68077;BME280;54866;53.458;14.540;2023-03-13T08:41:46;98931.15;;;6.29;100.00
68077;BME280;54866;53.458;14.540;2023-03-13T08:44:18;98925.05;;;6.29;100.00
68077;BME280;54866;53.458;14.540;2023-03-13T08:46:48;98910.50;;;6.28;100.00
68077;BME280;54866;53.458;14.540;2023-03-13T08:49:18;98911.88;;;6.30;100.00
68077;BME280;54866;53.458;14.540;2023-03-13T08:51:47;98901.36;;;6.32;100.00
68077;BME280;54866;53.458;14.540;2023-03-13T08:54:17;98895.70;;;6.33;100.00
68077;BME280;54866;53.458;14.540;2023-03-13T08:56:46;98881.80;;;6.38;100.00
68077;BME280;54866;53.458;14.540;2023-03-13T08:59:16;98877.85;;;6.39;100.00
68077;BME280;54866;53.458;14.540;2023-03-13T09:01:45;98867.13;;;6.41;100.00
68077;BME280;54866;53.458;14.540;2023-03-13T09:04:15;98857.54;;;6.43;100.00
68077;BME280;54866;53.458;14.540;2023-03-13T09:06:45;98859.81;;;6.43;100.00
68077;BME280;54866;53.458;14.540;2023-03-13T09:09:14;98857.66;;;6.44;100.00
68077;BME280;54866;53.458;14.540;2023-03-13T09:11:44;98846.14;;;6.43;100.00
68077;BME280;54866;53.458;14.540;2023-03-13T09:14:13;98846.41;;;6.46;100.00
68077;BME280;54866;53.458;14.540;2023-03-13T09:16:43;98838.06;;;6.47;100.00
68077;BME280;54866;53.458;14.540;2023-03-13T09:19:13;98838.39;;;6.49;100.00
68077;BME280;54866;53.458;14.540;2023-03-13T09:21:43;98824.47;;;6.53;100.00
68077;BME280;54866;53.458;14.540;2023-03-13T09:24:13;98834.13;;;6.54;100.00
68077;BME280;54866;53.458;14.540;2023-03-13T09:26:43;98817.49;;;6.54;100.00
68077;BME280;54866;53.458;14.540;2023-03-13T09:29:12;98839.56;;;6.54;100.00
68077;BME280;54866;53.458;14.540;2023-03-13T09:31:42;98816.66;;;6.55;100.00
68077;BME280;54866;53.458;14.540;2023-03-13T09:34:12;98818.84;;;6.54;100.00
68077;BME280;54866;53.458;14.540;2023-03-13T09:36:41;98828.79;;;6.57;100.00
68077;BME280;54866;53.458;14.540;2023-03-13T09:39:11;98804.40;;;6.59;100.00
68077;BME280;54866;53.458;14.540;2023-03-13T09:41:45;98809.77;;;6.60;100.00
68077;BME280;54866;53.458;14.540;2023-03-13T09:44:23;98788.71;;;6.61;100.00
68077;BME280;54866;53.458;14.540;2023-03-13T09:47:00;98792.10;;;6.60;100.00
68077;BME280;54866;53.458;14.540;2023-03-13T09:49:35;98793.18;;;6.60;100.00
68077;BME280;54866;53.458;14.540;2023-03-13T09:52:12;98796.35;;;6.59;100.00
68077;BME280;54866;53.458;14.540;2023-03-13T09:54:48;98782.73;;;6.59;100.00
68077;BME280;54866;53.458;14.540;2023-03-13T09:57:25;98799.13;;;6.62;100.00
68077;BME280;54866;53.458;14.540;2023-03-13T10:00:03;98766.83;;;6.63;100.00
68077;BME280;54866;53.458;14.540;2023-03-13T10:02:37;98768.50;;;6.63;100.00
68077;BME280;54866;53.458;14.540;2023-03-13T10:05:11;98765.08;;;6.64;100.00
68077;BME280;54866;53.458;14.540;2023-03-13T10:07:42;98766.17;;;6.66;100.00
68077;BME280;54866;53.458;14.540;2023-03-13T10:12:47;98767.65;;;6.71;100.00
68077;BME280;54866;53.458;14.540;2023-03-13T10:15:31;98757.66;;;6.75;100.00
68077;BME280;54866;53.458;14.540;2023-03-13T10:18:12;98747.80;;;6.77;100.00
68077;BME280;54866;53.458;14.540;2023-03-13T10:20:43;98757.58;;;6.81;100.00
68077;BME280;54866;53.458;14.540;2023-03-13T10:23:17;98752.66;;;6.85;100.00
68077;BME280;54866;53.458;14.540;2023-03-13T10:25:48;98754.60;;;6.88;100.00
68077;BME280;54866;53.458;14.540;2023-03-13T10:28:18;98754.42;;;6.90;100.00
68077;BME280;54866;53.458;14.540;2023-03-13T10:30:52;98739.14;;;6.93;100.00
68077;BME280;54866;53.458;14.540;2023-03-13T10:33:25;98746.79;;;6.97;100.00
68077;BME280;54866;53.458;14.540;2023-03-13T10:36:04;98737.53;;;7.01;100.00
68077;BME280;54866;53.458;14.540;2023-03-13T10:38:43;98742.28;;;7.03;100.00
68077;BME280;54866;53.458;14.540;2023-03-13T10:41:24;98723.20;;;7.04;100.00
68077;BME280;54866;53.458;14.540;2023-03-13T10:43:58;98727.30;;;7.07;100.00
68077;BME280;54866;53.458;14.540;2023-03-13T10:46:30;98720.13;;;7.09;100.00
68077;BME280;54866;53.458;14.540;2023-03-13T10:49:03;98725.26;;;7.12;100.00
68077;BME280;54866;53.458;14.540;2023-03-13T10:51:36;98705.80;;;7.14;100.00
68077;BME280;54866;53.458;14.540;2023-03-13T10:54:20;98720.42;;;7.17;100.00
68077;BME280;54866;53.458;14.540;2023-03-13T10:56:50;98712.98;;;7.20;100.00
68077;BME280;54866;53.458;14.540;2023-03-13T10:59:25;98708.79;;;7.21;100.00
68077;BME280;54866;53.458;14.540;2023-03-13T11:01:59;98707.80;;;7.24;100.00
68077;BME280;54866;53.458;14.540;2023-03-13T11:04:33;98700.14;;;7.27;100.00
68077;BME280;54866;53.458;14.540;2023-03-13T11:11:03;98697.35;;;7.42;100.00
68077;BME280;54866;53.458;14.540;2023-03-13T11:13:37;98690.70;;;7.45;100.00
68077;BME280;54866;53.458;14.540;2023-03-13T11:16:19;98675.94;;;7.49;100.00
68077;BME280;54866;53.458;14.540;2023-03-13T11:21:51;98669.91;;;7.59;100.00
68077;BME280;54866;53.458;14.540;2023-03-13T11:24:27;98669.24;;;7.64;100.00
68077;BME280;54866;53.458;14.540;2023-03-13T11:27:07;98655.29;;;7.68;100.00
68077;BME280;54866;53.458;14.540;2023-03-13T11:29:45;98658.58;;;7.74;100.00
68077;BME280;54866;53.458;14.540;2023-03-13T11:32:25;98654.13;;;7.80;100.00
68077;BME280;54866;53.458;14.540;2023-03-13T11:34:59;98648.67;;;7.87;100.00
68077;BME280;54866;53.458;14.540;2023-03-13T11:37:33;98649.06;;;7.96;100.00
68077;BME280;54866;53.458;14.540;2023-03-13T11:40:17;98641.89;;;8.02;100.00
68077;BME280;54866;53.458;14.540;2023-03-13T11:43:02;98649.82;;;8.09;100.00
68077;BME280;54866;53.458;14.540;2023-03-13T11:45:52;98649.73;;;8.15;100.00
68077;BME280;54866;53.458;14.540;2023-03-13T11:48:45;98645.79;;;8.20;100.00
68077;BME280;54866;53.458;14.540;2023-03-13T11:51:22;98641.20;;;8.24;100.00
68077;BME280;54866;53.458;14.540;2023-03-13T11:54:10;98641.89;;;8.25;100.00
68077;BME280;54866;53.458;14.540;2023-03-13T11:56:51;98638.85;;;8.29;100.00
68077;BME280;54866;53.458;14.540;2023-03-13T11:59:32;98637.41;;;8.33;100.00
68077;BME280;54866;53.458;14.540;2023-03-13T12:02:11;98638.62;;;8.37;100.00
68077;BME280;54866;53.458;14.540;2023-03-13T12:04:46;98637.52;;;8.41;100.00
68077;BME280;54866;53.458;14.540;2023-03-13T12:07:22;98628.77;;;8.44;100.00
68077;BME280;54866;53.458;14.540;2023-03-13T12:09:58;98635.66;;;8.46;100.00
68077;BME280;54866;53.458;14.540;2023-03-13T12:12:36;98627.48;;;8.50;100.00
68077;BME280;54866;53.458;14.540;2023-03-13T12:15:18;98622.41;;;8.53;100.00
68077;BME280;54866;53.458;14.540;2023-03-13T12:17:52;98625.16;;;8.58;100.00
68077;BME280;54866;53.458;14.540;2023-03-13T12:20:27;98628.96;;;8.62;100.00
68077;BME280;54866;53.458;14.540;2023-03-13T12:23:10;98623.60;;;8.68;100.00
68077;BME280;54866;53.458;14.540;2023-03-13T12:25:48;98616.15;;;8.74;100.00
68077;BME280;54866;53.458;14.540;2023-03-13T12:28:28;98610.77;;;8.81;100.00
68077;BME280;54866;53.458;14.540;2023-03-13T12:31:06;98613.29;;;8.85;100.00
68077;BME280;54866;53.458;14.540;2023-03-13T12:33:43;98607.88;;;8.91;100.00
68077;BME280;54866;53.458;14.540;2023-03-13T12:36:19;98597.85;;;9.00;100.00
68077;BME280;54866;53.458;14.540;2023-03-13T12:38:59;98588.09;;;9.04;100.00
68077;BME280;54866;53.458;14.540;2023-03-13T12:41:31;98604.70;;;9.15;100.00
68077;BME280;54866;53.458;14.540;2023-03-13T12:44:01;98601.95;;;9.21;100.00
68077;BME280;54866;53.458;14.540;2023-03-13T12:46:41;98603.79;;;9.22;100.00
68077;BME280;54866;53.458;14.540;2023-03-13T12:55:51;98600.23;;;9.39;100.00
68077;BME280;54866;53.458;14.540;2023-03-13T12:58:30;98597.56;;;9.47;100.00
68077;BME280;54866;53.458;14.540;2023-03-13T13:01:10;98602.97;;;9.52;100.00
68077;BME280;54866;53.458;14.540;2023-03-13T13:03:50;98594.24;;;9.61;100.00
68077;BME280;54866;53.458;14.540;2023-03-13T13:06:21;98585.56;;;9.69;100.00
68077;BME280;54866;53.458;14.540;2023-03-13T13:09:05;98590.55;;;9.78;100.00
68077;BME280;54866;53.458;14.540;2023-03-13T13:11:49;98586.81;;;9.85;100.00
68077;BME280;54866;53.458;14.540;2023-03-13T13:17:23;98583.06;;;10.03;100.00
68077;BME280;54866;53.458;14.540;2023-03-13T13:19:55;98574.16;;;10.18;100.00
68077;BME280;54866;53.458;14.540;2023-03-13T13:22:46;98571.09;;;10.40;100.00
68077;BME280;54866;53.458;14.540;2023-03-13T13:25:32;98567.33;;;10.64;100.00
68077;BME280;54866;53.458;14.540;2023-03-13T13:28:24;98570.64;;;10.89;100.00
68077;BME280;54866;53.458;14.540;2023-03-13T13:30:56;98560.30;;;11.19;100.00
68077;BME280;54866;53.458;14.540;2023-03-13T13:33:39;98565.23;;;11.38;100.00
68077;BME280;54866;53.458;14.540;2023-03-13T13:36:30;98568.73;;;11.68;100.00